Time;durP1;ratioP1;P1;durP2;ratioP2;P2;SDS_P1;SDS_P2;PMS_P1;PMS_P2;Temp;Humidity;BMP_temperature;BMP_pressure;BME280_temperature;BME280_humidity;BME280_pressure;Samples;Min_cycle;Max_cycle;Signal;HPM_P1;HPM_P2
2023/03/16 00:01:14;;;;;;;;;;;25.30;82.70;;;;;;1729212;82;20225;-83
2023/03/16 00:03:44;;;;;;;;;;;25.30;82.10;;;;;;1721016;81;20268;-84
2023/03/16 00:06:14;;;;;;;;;;;25.30;81.50;;;;;;1725935;81;20260;-82
2023/03/16 00:08:43;;;;;;;;;;;25.40;81.40;;;;;;1727408;81;20208;-84
2023/03/16 00:11:13;;;;;;;;;;;25.40;83.00;;;;;;1726098;82;20229;-84
2023/03/16 00:13:43;;;;;;;;;;;25.40;81.20;;;;;;1744418;81;20205;-83
2023/03/16 00:16:15;;;;;;;;;;;25.40;82.20;;;;;;1748002;81;20180;-84
2023/03/16 00:18:46;;;;;;;;;;;25.50;81.50;;;;;;1734354;81;20211;-84
2023/03/16 00:21:15;;;;;;;;;;;25.50;82.50;;;;;;1731143;81;20248;-84
2023/03/16 00:23:44;;;;;;;;;;;25.50;82.50;;;;;;1750095;79;20240;-84
2023/03/16 00:26:14;;;;;;;;;;;25.50;82.30;;;;;;1744687;82;20223;-83
2023/03/16 00:28:44;;;;;;;;;;;25.50;82.30;;;;;;1746030;82;20220;-83
2023/03/16 00:31:14;;;;;;;;;;;25.50;82.10;;;;;;1750938;81;20200;-83
2023/03/16 00:33:44;;;;;;;;;;;25.50;80.90;;;;;;1760737;80;20172;-83
2023/03/16 00:36:13;;;;;;;;;;;25.60;81.20;;;;;;1754661;81;20243;-84
2023/03/16 00:38:44;;;;;;;;;;;25.50;80.50;;;;;;1736441;81;20229;-83
2023/03/16 00:41:14;;;;;;;;;;;25.60;80.80;;;;;;1749663;80;20510;-82
2023/03/16 00:43:44;;;;;;;;;;;25.60;81.70;;;;;;1753619;80;20174;-84
2023/03/16 00:46:15;;;;;;;;;;;25.60;81.60;;;;;;1724150;82;20214;-83
2023/03/16 00:48:46;;;;;;;;;;;25.60;81.30;;;;;;1751470;80;20203;-83
2023/03/16 00:51:17;;;;;;;;;;;25.60;82.00;;;;;;1757877;80;20311;-74
2023/03/16 00:53:50;;;;;;;;;;;25.60;81.90;;;;;;1754565;80;20215;-73
2023/03/16 00:56:20;;;;;;;;;;;25.60;82.00;;;;;;1746342;80;20209;-74
2023/03/16 00:58:56;;;;;;;;;;;25.70;81.90;;;;;;1752416;80;20281;-74
2023/03/16 01:01:22;;;;;;;;;;;25.60;79.50;;;;;;1776137;80;20199;-74
2023/03/16 01:03:53;;;;;;;;;;;25.70;81.10;;;;;;1757558;80;20226;-73
2023/03/16 01:06:23;;;;;;;;;;;25.70;81.50;;;;;;1751437;80;20529;-74
2023/03/16 01:08:53;;;;;;;;;;;25.80;80.70;;;;;;1754352;80;20231;-74
2023/03/16 01:11:25;;;;;;;;;;;25.80;81.00;;;;;;1754013;80;20472;-73
2023/03/16 01:13:55;;;;;;;;;;;25.80;80.30;;;;;;1753923;80;20311;-73
2023/03/16 01:16:32;;;;;;;;;;;25.90;80.40;;;;;;1744705;80;20295;-74
2023/03/16 01:19:00;;;;;;;;;;;25.90;80.60;;;;;;1740090;80;20195;-71
2023/03/16 01:21:32;;;;;;;;;;;25.90;80.70;;;;;;1736704;80;20264;-72
2023/03/16 01:24:03;;;;;;;;;;;26.00;80.60;;;;;;1740968;80;20282;-72
2023/03/16 01:26:34;;;;;;;;;;;26.00;80.50;;;;;;1752750;79;20245;-73
2023/03/16 01:29:09;;;;;;;;;;;26.00;80.20;;;;;;1737724;81;20567;-73
2023/03/16 01:35:17;;;;;;;;;;;26.00;80.10;;;;;;1759387;80;20227;-72
2023/03/16 01:37:48;;;;;;;;;;;26.10;80.40;;;;;;1755964;80;20259;-74
2023/03/16 01:40:18;;;;;;;;;;;26.10;80.20;;;;;;1754935;80;20282;-73
2023/03/16 01:42:54;;;;;;;;;;;26.20;79.80;;;;;;1756845;80;20481;-72
2023/03/16 01:45:39;;;;;;;;;;;26.20;79.20;;;;;;1731666;81;20223;-75
2023/03/16 01:48:09;;;;;;;;;;;26.20;79.50;;;;;;1755356;80;20253;-75
2023/03/16 01:50:41;;;;;;;;;;;26.20;79.10;;;;;;1752839;80;20265;-74
2023/03/16 01:53:10;;;;;;;;;;;26.30;79.40;;;;;;1752151;80;20216;-73
2023/03/16 01:55:41;;;;;;;;;;;26.30;79.80;;;;;;1733373;80;20236;-75
2023/03/16 01:58:13;;;;;;;;;;;26.30;79.40;;;;;;1742980;80;20272;-74
2023/03/16 02:00:44;;;;;;;;;;;26.30;79.20;;;;;;1703365;82;20352;-74
2023/03/16 02:03:18;;;;;;;;;;;26.30;79.10;;;;;;1701297;82;20274;-74
2023/03/16 02:05:51;;;;;;;;;;;26.40;79.00;;;;;;1740298;80;20250;-72
2023/03/16 02:08:26;;;;;;;;;;;26.40;78.80;;;;;;1674344;84;20223;-72
2023/03/16 02:10:56;;;;;;;;;;;26.50;78.30;;;;;;1661591;85;20291;-73
2023/03/16 02:13:28;;;;;;;;;;;26.50;78.30;;;;;;1672220;86;20283;-73
2023/03/16 02:15:59;;;;;;;;;;;26.60;78.10;;;;;;1688997;83;20291;-73
2023/03/16 02:18:30;;;;;;;;;;;26.60;78.10;;;;;;1710423;83;20689;-73
2023/03/16 02:21:15;;;;;;;;;;;26.60;78.00;;;;;;1725475;81;20293;-73
2023/03/16 02:23:46;;;;;;;;;;;26.70;78.20;;;;;;1720163;81;20221;-73
2023/03/16 02:26:17;;;;;;;;;;;26.80;78.10;;;;;;1736471;81;20228;-73
2023/03/16 02:28:48;;;;;;;;;;;26.90;77.90;;;;;;1732590;81;20237;-71
2023/03/16 02:31:21;;;;;;;;;;;26.90;77.80;;;;;;1697703;83;20220;-73
2023/03/16 02:33:52;;;;;;;;;;;27.00;77.00;;;;;;1670543;84;20240;-73
2023/03/16 02:36:22;;;;;;;;;;;27.10;77.10;;;;;;1676402;84;20211;-73
2023/03/16 02:38:54;;;;;;;;;;;27.20;77.10;;;;;;1682912;84;20551;-73
2023/03/16 02:41:23;;;;;;;;;;;27.20;76.40;;;;;;1676952;84;20222;-76
2023/03/16 02:44:00;;;;;;;;;;;27.30;76.00;;;;;;1730295;81;20210;-74
2023/03/16 02:46:34;;;;;;;;;;;27.40;75.80;;;;;;1726109;81;20370;-75
2023/03/16 02:49:03;;;;;;;;;;;27.50;75.30;;;;;;1734161;81;20646;-75
2023/03/16 02:51:33;;;;;;;;;;;27.60;75.30;;;;;;1735614;81;20235;-75
2023/03/16 02:54:03;;;;;;;;;;;27.70;75.30;;;;;;1741640;81;20184;-75
2023/03/16 02:56:33;;;;;;;;;;;27.80;73.80;;;;;;1732485;81;20264;-75
2023/03/16 02:59:04;;;;;;;;;;;27.90;73.20;;;;;;1730494;81;20438;-75
2023/03/16 03:01:35;;;;;;;;;;;28.00;73.10;;;;;;1734184;81;20498;-75
2023/03/16 03:04:06;;;;;;;;;;;28.10;73.00;;;;;;1731093;82;20223;-74
2023/03/16 03:06:36;;;;;;;;;;;28.10;72.80;;;;;;1730080;82;20347;-74
2023/03/16 03:09:13;;;;;;;;;;;28.20;72.90;;;;;;1724307;81;20334;-74
2023/03/16 03:11:41;;;;;;;;;;;28.30;72.10;;;;;;1742983;80;20253;-76
2023/03/16 03:14:11;;;;;;;;;;;28.30;71.80;;;;;;1755111;80;20244;-75
2023/03/16 03:16:45;;;;;;;;;;;28.40;71.50;;;;;;1733831;80;20245;-74
2023/03/16 03:19:13;;;;;;;;;;;28.60;71.20;;;;;;1738272;80;20583;-73
2023/03/16 03:21:43;;;;;;;;;;;28.60;71.10;;;;;;1745090;80;20197;-74
2023/03/16 03:24:13;;;;;;;;;;;28.70;70.90;;;;;;1745664;80;20232;-74
2023/03/16 03:26:43;;;;;;;;;;;28.90;70.20;;;;;;1762690;80;20323;-74
2023/03/16 03:29:14;;;;;;;;;;;29.00;70.40;;;;;;1769265;80;20294;-76
2023/03/16 03:31:48;;;;;;;;;;;29.10;70.20;;;;;;1739156;80;20257;-76
2023/03/16 03:34:24;;;;;;;;;;;29.30;70.00;;;;;;1737384;80;20267;-74
2023/03/16 03:36:55;;;;;;;;;;;29.40;69.90;;;;;;1745280;80;20239;-73
2023/03/16 03:39:25;;;;;;;;;;;29.60;68.80;;;;;;1740885;80;20253;-73
2023/03/16 03:41:55;;;;;;;;;;;29.70;68.70;;;;;;1743717;80;20417;-73
2023/03/16 03:44:26;;;;;;;;;;;29.70;68.90;;;;;;1742268;80;20246;-74
2023/03/16 03:46:56;;;;;;;;;;;29.80;67.60;;;;;;1748045;80;20630;-74
2023/03/16 03:49:30;;;;;;;;;;;29.90;67.50;;;;;;1751278;80;20249;-75
2023/03/16 03:52:03;;;;;;;;;;;30.00;67.50;;;;;;1754803;80;20137;-74
2023/03/16 03:54:33;;;;;;;;;;;30.00;66.70;;;;;;1708443;82;20140;-74
2023/03/16 03:57:05;;;;;;;;;;;30.10;66.30;;;;;;1740020;80;20602;-73
2023/03/16 03:59:41;;;;;;;;;;;30.20;66.10;;;;;;1746492;80;20232;-72
2023/03/16 04:02:08;;;;;;;;;;;30.30;65.60;;;;;;1736875;80;20361;-74
2023/03/16 04:04:39;;;;;;;;;;;30.40;66.10;;;;;;1745940;80;20233;-73
2023/03/16 04:07:10;;;;;;;;;;;30.40;65.70;;;;;;1742679;80;20231;-73
2023/03/16 04:09:40;;;;;;;;;;;30.50;65.30;;;;;;1745580;80;20290;-72
2023/03/16 04:12:11;;;;;;;;;;;30.60;65.50;;;;;;1755614;80;20467;-74
2023/03/16 04:14:41;;;;;;;;;;;30.70;64.80;;;;;;1761408;80;20335;-74
2023/03/16 04:17:12;;;;;;;;;;;30.70;65.90;;;;;;1755034;80;20653;-75
2023/03/16 04:19:42;;;;;;;;;;;30.80;64.70;;;;;;1765650;80;20268;-73
2023/03/16 04:22:15;;;;;;;;;;;30.90;65.00;;;;;;1746723;80;20604;-83
2023/03/16 04:24:47;;;;;;;;;;;31.00;64.30;;;;;;1751198;80;20197;-83
2023/03/16 04:27:17;;;;;;;;;;;31.00;65.00;;;;;;1755343;82;20133;-82
2023/03/16 04:29:46;;;;;;;;;;;31.00;63.90;;;;;;1752757;80;20176;-82
2023/03/16 04:32:19;;;;;;;;;;;31.10;62.60;;;;;;1754281;80;20202;-81
2023/03/16 04:34:54;;;;;;;;;;;31.20;63.90;;;;;;1757789;80;20487;-82
2023/03/16 04:40:41;;;;;;;;;;;31.20;64.60;;;;;;1756791;80;20180;-84
2023/03/16 04:43:12;;;;;;;;;;;31.30;63.50;;;;;;1749841;80;20220;-85
2023/03/16 04:45:46;;;;;;;;;;;31.40;63.40;;;;;;1744637;80;20233;-83
2023/03/16 04:48:18;;;;;;;;;;;31.50;63.30;;;;;;1766442;80;20203;-85
2023/03/16 04:50:49;;;;;;;;;;;31.50;63.00;;;;;;1783538;80;20203;-84
2023/03/16 04:53:19;;;;;;;;;;;31.60;64.50;;;;;;1759213;80;20249;-85
2023/03/16 04:55:50;;;;;;;;;;;31.60;63.00;;;;;;1751971;80;20262;-83
2023/03/16 04:58:19;;;;;;;;;;;31.70;62.90;;;;;;1768029;80;20236;-84
2023/03/16 05:00:50;;;;;;;;;;;31.70;63.30;;;;;;1761523;80;20172;-82
2023/03/16 05:03:25;;;;;;;;;;;31.70;62.10;;;;;;1755368;80;20177;-83
2023/03/16 05:06:17;;;;;;;;;;;31.80;64.00;;;;;;1757080;81;20385;-83
2023/03/16 05:08:49;;;;;;;;;;;31.90;63.70;;;;;;1740691;81;20236;-83
2023/03/16 05:11:24;;;;;;;;;;;31.90;63.70;;;;;;1756908;81;20196;-85
2023/03/16 05:13:56;;;;;;;;;;;32.00;61.10;;;;;;1760477;80;20219;-84
2023/03/16 05:16:27;;;;;;;;;;;32.10;62.60;;;;;;1740656;81;20195;-85
2023/03/16 05:19:00;;;;;;;;;;;32.20;62.50;;;;;;1753331;80;20173;-84
2023/03/16 05:21:33;;;;;;;;;;;32.30;60.30;;;;;;1748552;80;20246;-83
2023/03/16 05:24:05;;;;;;;;;;;32.30;60.10;;;;;;1751081;80;20168;-84
2023/03/16 05:26:34;;;;;;;;;;;32.40;61.20;;;;;;1756931;80;20301;-84
2023/03/16 05:29:04;;;;;;;;;;;32.40;61.00;;;;;;1772251;80;20219;-85
2023/03/16 05:31:36;;;;;;;;;;;32.40;62.50;;;;;;1777227;80;20219;-86
2023/03/16 05:34:06;;;;;;;;;;;32.40;61.80;;;;;;1752931;80;20302;-86
2023/03/16 05:36:36;;;;;;;;;;;32.40;61.50;;;;;;1769451;80;20211;-83
2023/03/16 05:39:07;;;;;;;;;;;32.40;62.30;;;;;;1770495;80;20737;-85
2023/03/16 05:41:37;;;;;;;;;;;32.50;62.50;;;;;;1788642;80;20303;-85
2023/03/16 05:44:08;;;;;;;;;;;32.50;61.90;;;;;;1764408;80;20217;-84
2023/03/16 05:46:38;;;;;;;;;;;32.50;62.00;;;;;;1759796;80;20226;-84
2023/03/16 05:49:10;;;;;;;;;;;32.50;60.10;;;;;;1727641;82;20187;-85
2023/03/16 05:51:40;;;;;;;;;;;32.60;61.60;;;;;;1709686;83;20288;-85
2023/03/16 05:54:10;;;;;;;;;;;32.60;61.30;;;;;;1695335;83;20283;-87
2023/03/16 05:56:40;;;;;;;;;;;32.60;61.20;;;;;;1707426;83;20220;-86
2023/03/16 05:59:28;;;;;;;;;;;32.60;60.70;;;;;;1750070;80;20280;-84
2023/03/16 06:01:58;;;;;;;;;;;32.60;62.60;;;;;;1767772;80;20227;-85
2023/03/16 06:04:29;;;;;;;;;;;32.70;62.40;;;;;;1762395;80;20176;-85
2023/03/16 06:06:58;;;;;;;;;;;32.70;59.70;;;;;;1753153;80;20168;-85
2023/03/16 06:12:56;;;;;;;;;;;32.70;60.50;;;;;;1751515;80;20306;-85
2023/03/16 06:15:29;;;;;;;;;;;32.70;60.20;;;;;;1743669;80;20506;-85
2023/03/16 06:17:58;;;;;;;;;;;32.70;59.40;;;;;;1751451;81;20263;-87
2023/03/16 06:20:28;;;;;;;;;;;32.80;59.60;;;;;;1753572;80;20185;-86
2023/03/16 06:22:58;;;;;;;;;;;32.80;59.60;;;;;;1741147;79;20424;-72
2023/03/16 06:25:28;;;;;;;;;;;32.80;59.70;;;;;;1747131;80;20296;-72
2023/03/16 06:27:58;;;;;;;;;;;32.80;60.00;;;;;;1754313;80;20454;-71
2023/03/16 06:30:28;;;;;;;;;;;32.80;59.50;;;;;;1746308;79;20235;-72
2023/03/16 06:32:59;;;;;;;;;;;32.80;58.50;;;;;;1753166;80;20549;-72
2023/03/16 06:38:24;;;;;;;;;;;32.90;59.20;;;;;;1821660;76;20246;-73
2023/03/16 06:40:54;;;;;;;;;;;32.90;59.00;;;;;;1794947;77;20203;-72
2023/03/16 06:43:27;;;;;;;;;;;33.00;58.90;;;;;;1794819;78;20240;-72
2023/03/16 06:45:55;;;;;;;;;;;33.00;58.40;;;;;;1777222;79;20190;-72
2023/03/16 06:48:25;;;;;;;;;;;33.10;58.00;;;;;;1769708;79;20265;-72
2023/03/16 06:50:57;;;;;;;;;;;33.10;57.10;;;;;;1777326;79;20204;-72
2023/03/16 06:53:27;;;;;;;;;;;33.10;58.10;;;;;;1771798;79;20317;-72
2023/03/16 06:55:57;;;;;;;;;;;33.00;57.40;;;;;;1780314;79;20176;-72
2023/03/16 07:01:17;;;;;;;;;;;33.00;59.60;;;;;;1832547;76;20481;-72
2023/03/16 07:03:47;;;;;;;;;;;33.00;59.30;;;;;;1838339;76;20238;-72
2023/03/16 07:06:17;;;;;;;;;;;33.10;57.50;;;;;;1816131;77;20297;-73
2023/03/16 07:08:48;;;;;;;;;;;33.10;58.30;;;;;;1807391;78;20218;-72
2023/03/16 07:11:19;;;;;;;;;;;33.10;58.50;;;;;;1803889;77;20277;-71
2023/03/16 07:13:49;;;;;;;;;;;33.00;57.60;;;;;;1802597;78;20652;-70
2023/03/16 07:16:22;;;;;;;;;;;33.10;57.10;;;;;;1780636;79;20270;-72
2023/03/16 07:18:55;;;;;;;;;;;33.00;56.80;;;;;;1754176;80;20299;-72
2023/03/16 07:21:25;;;;;;;;;;;33.00;56.40;;;;;;1797880;78;20283;-71
2023/03/16 07:23:55;;;;;;;;;;;33.00;56.30;;;;;;1752993;79;20230;-73
2023/03/16 07:26:25;;;;;;;;;;;32.90;56.90;;;;;;1756036;79;20283;-72
2023/03/16 07:28:55;;;;;;;;;;;32.90;57.30;;;;;;1781179;78;20410;-71
2023/03/16 07:31:32;;;;;;;;;;;32.90;57.10;;;;;;1779921;79;20171;-70
2023/03/16 07:34:04;;;;;;;;;;;32.90;57.00;;;;;;1807016;77;20170;-70
2023/03/16 07:36:34;;;;;;;;;;;32.80;56.70;;;;;;1819021;77;20190;-71
2023/03/16 07:39:05;;;;;;;;;;;32.80;57.20;;;;;;1815040;77;20309;-71
2023/03/16 07:41:35;;;;;;;;;;;32.70;58.10;;;;;;1812457;77;20178;-71
2023/03/16 07:44:04;;;;;;;;;;;32.70;56.90;;;;;;1807527;77;20233;-71
2023/03/16 07:46:36;;;;;;;;;;;32.70;56.00;;;;;;1806849;78;20455;-71
2023/03/16 07:49:11;;;;;;;;;;;32.70;55.80;;;;;;1815038;77;20395;-72
2023/03/16 07:51:40;;;;;;;;;;;32.70;55.20;;;;;;1809313;77;20555;-71
2023/03/16 07:54:09;;;;;;;;;;;32.60;55.20;;;;;;1792599;78;20231;-72
2023/03/16 07:56:40;;;;;;;;;;;32.70;55.90;;;;;;1789208;79;20314;-73
2023/03/16 07:59:12;;;;;;;;;;;32.60;55.00;;;;;;1813019;78;20220;-73
2023/03/16 08:01:45;;;;;;;;;;;32.60;54.70;;;;;;1812055;78;20198;-72
2023/03/16 08:04:14;;;;;;;;;;;32.60;54.90;;;;;;1810947;77;20446;-71
2023/03/16 08:06:45;;;;;;;;;;;32.60;55.00;;;;;;1819544;77;20217;-71
2023/03/16 08:09:15;;;;;;;;;;;32.60;54.20;;;;;;1805786;78;20512;-71
2023/03/16 08:11:45;;;;;;;;;;;32.60;54.50;;;;;;1810934;78;20587;-70
2023/03/16 08:14:15;;;;;;;;;;;32.60;54.50;;;;;;1810673;78;20272;-71
2023/03/16 08:16:46;;;;;;;;;;;32.60;55.00;;;;;;1807535;78;20254;-72
2023/03/16 08:19:16;;;;;;;;;;;32.60;58.20;;;;;;1808994;78;20222;-72
2023/03/16 08:21:46;;;;;;;;;;;32.60;56.70;;;;;;1807160;78;20339;-71
2023/03/16 08:24:18;;;;;;;;;;;32.70;55.70;;;;;;1797148;78;20495;-72
2023/03/16 08:26:48;;;;;;;;;;;32.70;54.80;;;;;;1791515;78;20208;-72
2023/03/16 08:29:17;;;;;;;;;;;32.70;53.80;;;;;;1800688;78;20339;-72
2023/03/16 08:31:48;;;;;;;;;;;32.70;54.50;;;;;;1800794;78;20529;-72
2023/03/16 08:34:18;;;;;;;;;;;32.70;55.20;;;;;;1814308;78;20281;-72
2023/03/16 08:36:48;;;;;;;;;;;32.70;54.80;;;;;;1802327;79;20248;-73
2023/03/16 08:39:27;;;;;;;;;;;32.70;55.10;;;;;;1803986;78;20248;-74
2023/03/16 08:41:54;;;;;;;;;;;32.70;55.00;;;;;;1798498;78;20761;-74
2023/03/16 08:44:24;;;;;;;;;;;32.70;54.80;;;;;;1806038;78;20371;-72
2023/03/16 08:46:55;;;;;;;;;;;32.70;54.20;;;;;;1809730;78;20340;-75
2023/03/16 08:49:26;;;;;;;;;;;32.70;55.30;;;;;;1815414;78;20166;-74
2023/03/16 08:52:04;;;;;;;;;;;32.60;54.90;;;;;;1808011;78;20261;-75
2023/03/16 08:54:34;;;;;;;;;;;32.70;55.60;;;;;;1807746;78;20217;-74
2023/03/16 08:57:04;;;;;;;;;;;32.70;53.50;;;;;;1794340;78;20543;-74
2023/03/16 08:59:35;;;;;;;;;;;32.70;54.90;;;;;;1785131;78;20187;-74
2023/03/16 09:02:06;;;;;;;;;;;32.70;54.80;;;;;;1778639;79;20206;-76
2023/03/16 09:04:37;;;;;;;;;;;32.60;54.00;;;;;;1752803;81;20240;-73
2023/03/16 09:07:13;;;;;;;;;;;32.60;55.40;;;;;;1762863;80;20183;-73
2023/03/16 09:09:44;;;;;;;;;;;32.60;55.80;;;;;;1775713;80;20212;-75
2023/03/16 09:12:15;;;;;;;;;;;32.50;55.20;;;;;;1754400;80;20477;-75
2023/03/16 09:14:47;;;;;;;;;;;32.50;55.60;;;;;;1776333;79;20180;-75
2023/03/16 09:17:19;;;;;;;;;;;32.50;54.80;;;;;;1774647;79;20176;-76
2023/03/16 09:19:51;;;;;;;;;;;32.50;53.90;;;;;;1774765;79;20188;-74
2023/03/16 09:22:24;;;;;;;;;;;32.50;54.20;;;;;;1744918;81;20617;-74
2023/03/16 09:24:55;;;;;;;;;;;32.40;55.20;;;;;;1776375;79;20324;-75
2023/03/16 09:27:25;;;;;;;;;;;32.40;54.90;;;;;;1776794;79;20211;-75
2023/03/16 09:29:55;;;;;;;;;;;32.40;54.80;;;;;;1776696;79;20227;-76
2023/03/16 09:32:26;;;;;;;;;;;32.40;54.50;;;;;;1771395;79;20169;-75
2023/03/16 09:34:56;;;;;;;;;;;32.40;55.70;;;;;;1748470;80;20231;-75
2023/03/16 09:37:26;;;;;;;;;;;32.30;54.50;;;;;;1773342;80;20163;-73
2023/03/16 09:39:58;;;;;;;;;;;32.30;55.00;;;;;;1757248;81;20561;-75
2023/03/16 09:42:34;;;;;;;;;;;32.30;55.10;;;;;;1765432;79;20187;-75
2023/03/16 09:45:08;;;;;;;;;;;32.30;56.00;;;;;;1776378;79;20175;-75
2023/03/16 09:47:40;;;;;;;;;;;32.20;56.00;;;;;;1777912;79;20466;-76
2023/03/16 09:50:15;;;;;;;;;;;32.20;55.70;;;;;;1782185;79;20389;-76
2023/03/16 09:52:46;;;;;;;;;;;32.20;56.10;;;;;;1776550;79;20467;-74
2023/03/16 09:55:23;;;;;;;;;;;32.20;55.80;;;;;;1772391;79;20242;-75
2023/03/16 09:57:54;;;;;;;;;;;32.20;55.70;;;;;;1772343;80;20184;-74
2023/03/16 10:00:26;;;;;;;;;;;32.10;55.90;;;;;;1772926;79;20732;-74
2023/03/16 10:03:04;;;;;;;;;;;32.10;55.30;;;;;;1783794;78;20169;-74
2023/03/16 10:05:34;;;;;;;;;;;32.10;56.20;;;;;;1786672;78;20720;-74
2023/03/16 10:08:25;;;;;;;;;;;32.10;55.90;;;;;;1796040;78;20292;-74
2023/03/16 10:11:03;;;;;;;;;;;32.00;55.90;;;;;;1784562;79;20317;-73
2023/03/16 10:13:40;;;;;;;;;;;32.00;55.80;;;;;;1782658;79;20194;-73
2023/03/16 10:16:14;;;;;;;;;;;32.00;55.90;;;;;;1782615;78;20202;-74
2023/03/16 10:18:45;;;;;;;;;;;31.90;56.50;;;;;;1778416;79;20217;-74
2023/03/16 10:21:17;;;;;;;;;;;32.00;56.30;;;;;;1786537;78;20465;-75
2023/03/16 10:23:49;;;;;;;;;;;31.90;56.10;;;;;;1791745;78;20823;-74
2023/03/16 10:26:21;;;;;;;;;;;31.90;56.60;;;;;;1790558;78;20820;-74
2023/03/16 10:28:51;;;;;;;;;;;31.90;56.80;;;;;;1786691;78;20243;-76
2023/03/16 10:31:22;;;;;;;;;;;31.90;57.10;;;;;;1777771;79;20624;-75
2023/03/16 10:33:54;;;;;;;;;;;31.90;56.40;;;;;;1772288;79;20227;-74
2023/03/16 10:36:32;;;;;;;;;;;31.80;56.70;;;;;;1801288;78;20614;-73
2023/03/16 10:39:03;;;;;;;;;;;31.80;57.00;;;;;;1802146;78;20276;-74
2023/03/16 10:41:35;;;;;;;;;;;31.80;56.80;;;;;;1809023;78;20209;-74
2023/03/16 10:44:15;;;;;;;;;;;31.80;57.00;;;;;;1802517;78;20282;-74
2023/03/16 10:46:52;;;;;;;;;;;31.80;57.20;;;;;;1805248;78;20186;-76
2023/03/16 10:49:24;;;;;;;;;;;31.80;57.20;;;;;;1806045;78;20231;-74
2023/03/16 10:52:03;;;;;;;;;;;31.80;57.40;;;;;;1795889;78;20269;-75
2023/03/16 10:54:38;;;;;;;;;;;31.70;57.40;;;;;;1773361;79;20562;-75
2023/03/16 10:57:15;;;;;;;;;;;31.70;57.20;;;;;;1774647;79;20242;-75
2023/03/16 10:59:46;;;;;;;;;;;31.70;56.80;;;;;;1768716;79;20209;-75
2023/03/16 11:02:22;;;;;;;;;;;31.60;57.40;;;;;;1775192;79;20246;-73
2023/03/16 11:04:53;;;;;;;;;;;31.60;57.50;;;;;;1776738;79;20182;-73
2023/03/16 11:10:46;;;;;;;;;;;31.60;57.70;;;;;;1795873;78;20193;-75
2023/03/16 11:13:34;;;;;;;;;;;31.60;57.90;;;;;;1798670;78;20174;-72
2023/03/16 11:16:08;;;;;;;;;;;31.50;57.80;;;;;;1795271;78;20205;-73
2023/03/16 11:18:45;;;;;;;;;;;31.50;58.00;;;;;;1793032;78;20300;-74
2023/03/16 11:21:25;;;;;;;;;;;31.50;58.10;;;;;;1766033;80;20463;-72
2023/03/16 11:23:56;;;;;;;;;;;31.40;58.00;;;;;;1789592;78;20253;-73
2023/03/16 11:26:34;;;;;;;;;;;31.40;58.10;;;;;;1800378;78;20202;-74
2023/03/16 11:29:17;;;;;;;;;;;31.30;58.30;;;;;;1796003;78;20194;-73
2023/03/16 11:34:55;;;;;;;;;;;31.20;58.60;;;;;;1748465;80;20199;-76
2023/03/16 11:37:26;;;;;;;;;;;31.20;58.60;;;;;;1732876;81;20596;-73
2023/03/16 11:39:58;;;;;;;;;;;31.20;58.60;;;;;;1738272;80;20474;-73
2023/03/16 11:42:32;;;;;;;;;;;31.10;58.60;;;;;;1712250;82;20341;-73
2023/03/16 11:45:21;;;;;;;;;;;31.10;58.60;;;;;;1733297;81;20181;-73
2023/03/16 11:47:55;;;;;;;;;;;31.10;58.70;;;;;;1762102;79;20183;-75
2023/03/16 11:50:29;;;;;;;;;;;31.10;58.70;;;;;;1770122;80;20186;-73
2023/03/16 11:53:01;;;;;;;;;;;31.00;58.70;;;;;;1765935;80;20191;-74
2023/03/16 11:55:38;;;;;;;;;;;31.00;58.80;;;;;;1763858;81;20203;-74
2023/03/16 11:58:27;;;;;;;;;;;31.00;58.90;;;;;;1756868;80;20203;-76
2023/03/16 12:01:00;;;;;;;;;;;31.00;59.00;;;;;;1764643;80;20235;-75
2023/03/16 12:03:35;;;;;;;;;;;30.90;59.00;;;;;;1761784;80;20421;-72
2023/03/16 12:06:26;;;;;;;;;;;30.90;59.10;;;;;;1765267;80;20298;-76
2023/03/16 12:09:27;;;;;;;;;;;30.90;59.20;;;;;;1767051;80;20215;-81
2023/03/16 12:12:13;;;;;;;;;;;30.90;59.20;;;;;;1770038;79;20266;-81
2023/03/16 12:15:02;;;;;;;;;;;30.90;59.30;;;;;;1760862;80;20222;-82
2023/03/16 12:17:52;;;;;;;;;;;30.80;59.30;;;;;;1758964;81;20225;-82
2023/03/16 12:20:49;;;;;;;;;;;30.80;59.60;;;;;;1764063;81;20198;-82
2023/03/16 12:23:30;;;;;;;;;;;30.80;59.80;;;;;;1773160;80;20250;-80
2023/03/16 12:26:28;;;;;;;;;;;30.70;60.10;;;;;;1778764;79;20211;-82
2023/03/16 12:29:28;;;;;;;;;;;30.70;60.60;;;;;;1758562;80;20231;-81
2023/03/16 12:32:23;;;;;;;;;;;30.70;60.70;;;;;;1761634;81;20514;-81
2023/03/16 12:35:24;;;;;;;;;;;30.60;60.90;;;;;;1743005;80;20177;-82
2023/03/16 12:38:29;;;;;;;;;;;30.60;61.20;;;;;;1748154;82;20312;-81
2023/03/16 12:41:28;;;;;;;;;;;30.60;61.40;;;;;;1770705;81;20187;-82
2023/03/16 12:44:16;;;;;;;;;;;30.50;61.70;;;;;;1765997;79;20498;-81
2023/03/16 12:47:00;;;;;;;;;;;30.50;61.90;;;;;;1766245;81;20530;-81
2023/03/16 12:49:33;;;;;;;;;;;30.50;62.30;;;;;;1754055;81;20175;-82
2023/03/16 12:52:22;;;;;;;;;;;30.50;62.70;;;;;;1768547;81;20291;-82
2023/03/16 12:55:13;;;;;;;;;;;30.40;62.80;;;;;;1768291;81;20230;-83
2023/03/16 12:58:10;;;;;;;;;;;30.40;62.90;;;;;;1759418;81;20175;-82
2023/03/16 13:00:56;;;;;;;;;;;30.40;63.40;;;;;;1761083;81;20206;-81
2023/03/16 13:03:49;;;;;;;;;;;30.40;63.60;;;;;;1769908;81;20179;-81
2023/03/16 13:06:44;;;;;;;;;;;30.30;64.10;;;;;;1759638;81;20187;-81
2023/03/16 13:09:20;;;;;;;;;;;30.30;64.10;;;;;;1755230;81;20220;-81
2023/03/16 13:12:11;;;;;;;;;;;30.30;64.30;;;;;;1771841;81;20176;-82
2023/03/16 13:14:43;;;;;;;;;;;30.30;64.70;;;;;;1766839;81;20280;-81
2023/03/16 13:17:32;;;;;;;;;;;30.20;64.50;;;;;;1766158;81;20239;-81
2023/03/16 13:20:15;;;;;;;;;;;30.20;64.70;;;;;;1769032;81;20188;-80
2023/03/16 13:22:52;;;;;;;;;;;30.20;64.90;;;;;;1767004;81;20489;-81
2023/03/16 13:25:25;;;;;;;;;;;30.20;64.90;;;;;;1754374;81;20602;-80
2023/03/16 13:28:00;;;;;;;;;;;30.20;64.80;;;;;;1766549;81;20250;-80
2023/03/16 13:30:31;;;;;;;;;;;30.20;64.90;;;;;;1760189;81;20189;-81
2023/03/16 13:33:02;;;;;;;;;;;30.20;65.10;;;;;;1768424;80;20423;-80
2023/03/16 13:35:32;;;;;;;;;;;30.20;65.10;;;;;;1761335;80;20239;-83
2023/03/16 13:38:08;;;;;;;;;;;30.10;64.90;;;;;;1771671;81;20170;-82
2023/03/16 13:40:39;;;;;;;;;;;30.20;65.50;;;;;;1774404;81;20136;-82
2023/03/16 13:43:13;;;;;;;;;;;30.10;65.30;;;;;;1764868;81;20213;-82
2023/03/16 13:45:47;;;;;;;;;;;30.10;65.40;;;;;;1767805;81;20160;-83
2023/03/16 13:48:19;;;;;;;;;;;30.10;65.40;;;;;;1765064;81;20182;-82
2023/03/16 13:50:56;;;;;;;;;;;30.10;66.40;;;;;;1732012;81;20190;-82
2023/03/16 13:53:48;;;;;;;;;;;30.10;65.70;;;;;;1753186;82;20181;-83
2023/03/16 13:56:27;;;;;;;;;;;30.10;65.50;;;;;;1746774;81;20189;-82
2023/03/16 13:59:00;;;;;;;;;;;30.00;65.50;;;;;;1757542;81;20218;-83
2023/03/16 14:01:32;;;;;;;;;;;30.00;65.90;;;;;;1766354;81;20155;-81
2023/03/16 14:04:10;;;;;;;;;;;30.00;66.10;;;;;;1770801;81;20241;-82
2023/03/16 14:06:42;;;;;;;;;;;30.00;66.40;;;;;;1758731;81;20202;-81
2023/03/16 14:09:16;;;;;;;;;;;30.00;66.10;;;;;;1758351;81;20633;-81
2023/03/16 14:11:56;;;;;;;;;;;29.90;66.00;;;;;;1773286;81;20131;-83
2023/03/16 14:14:25;;;;;;;;;;;29.90;66.20;;;;;;1718191;82;20136;-82
2023/03/16 14:17:01;;;;;;;;;;;29.90;66.10;;;;;;1673476;83;20576;-83
2023/03/16 14:19:34;;;;;;;;;;;29.90;66.30;;;;;;1774337;79;20128;-82
2023/03/16 14:22:02;;;;;;;;;;;29.90;66.70;;;;;;1771638;81;20536;-82
2023/03/16 14:24:35;;;;;;;;;;;29.90;66.70;;;;;;1773782;81;20136;-82
2023/03/16 14:27:18;;;;;;;;;;;29.90;66.80;;;;;;1771305;81;20156;-81
2023/03/16 14:29:52;;;;;;;;;;;29.80;66.80;;;;;;1771397;81;20274;-83
2023/03/16 14:32:31;;;;;;;;;;;29.80;67.20;;;;;;1773329;81;20120;-82
2023/03/16 14:35:02;;;;;;;;;;;29.80;66.80;;;;;;1771808;80;20608;-83
2023/03/16 14:37:37;;;;;;;;;;;29.80;66.90;;;;;;1776843;81;20180;-81
2023/03/16 14:40:08;;;;;;;;;;;29.80;66.80;;;;;;1778643;81;20434;-82
2023/03/16 14:42:44;;;;;;;;;;;29.80;67.00;;;;;;1766432;81;20439;-80
2023/03/16 14:45:12;;;;;;;;;;;29.70;67.20;;;;;;1779522;79;20171;-85
2023/03/16 14:47:44;;;;;;;;;;;29.70;67.10;;;;;;1775606;79;20176;-83
2023/03/16 14:50:15;;;;;;;;;;;29.70;67.20;;;;;;1777031;80;20179;-84
2023/03/16 14:52:45;;;;;;;;;;;29.70;67.30;;;;;;1779530;80;20149;-84
2023/03/16 14:55:16;;;;;;;;;;;29.70;67.30;;;;;;1768973;80;20289;-83
2023/03/16 14:57:54;;;;;;;;;;;29.70;67.40;;;;;;1731286;82;20142;-83
2023/03/16 15:00:21;;;;;;;;;;;29.70;67.70;;;;;;1751317;80;20212;-82
2023/03/16 15:02:52;;;;;;;;;;;29.70;67.80;;;;;;1749138;82;20229;-83
2023/03/16 15:05:25;;;;;;;;;;;29.60;68.00;;;;;;1745983;81;20184;-84
2023/03/16 15:07:56;;;;;;;;;;;29.60;68.40;;;;;;1755853;81;20222;-84
2023/03/16 15:10:27;;;;;;;;;;;29.60;68.50;;;;;;1741180;82;20642;-84
2023/03/16 15:13:23;;;;;;;;;;;29.50;68.10;;;;;;1745070;81;20146;-83
2023/03/16 15:15:52;;;;;;;;;;;29.50;68.30;;;;;;1776946;81;20131;-83